Time;durP1;ratioP1;P1;durP2;ratioP2;P2;SDS_P1;SDS_P2;PMS_P1;PMS_P2;Temp;Humidity;BMP_temperature;BMP_pressure;BME280_temperature;BME280_humidity;BME280_pressure;Samples;Min_cycle;Max_cycle;Signal;HPM_P1;HPM_P2
2023/01/15 00:00:17;;;;;;;1.08;0.47;;;7.20;99.90;;;;;;12426932;28;20096;-78
2023/01/15 00:06:21;;;;;;;6.65;0.70;;;7.10;99.90;;;;;;12424210;28;20551;-78
2023/01/15 00:12:23;;;;;;;1.30;0.40;;;6.90;99.90;;;;;;12425768;28;20664;-78
2023/01/15 00:18:25;;;;;;;2.85;0.57;;;6.90;99.90;;;;;;12401157;28;20360;-79
2023/01/15 00:30:47;;;;;;;1.23;0.52;;;6.70;99.90;;;;;;12430882;28;20082;-79
2023/01/15 00:36:49;;;;;;;3.42;0.60;;;6.50;99.90;;;;;;12439958;28;20148;-79
2023/01/15 00:42:51;;;;;;;2.70;0.50;;;6.40;99.90;;;;;;12434034;28;20042;-79
2023/01/15 00:48:55;;;;;;;1.20;0.33;;;6.20;99.90;;;;;;12434637;28;20046;-79
2023/01/15 00:54:57;;;;;;;1.90;0.50;;;6.20;99.90;;;;;;12421730;28;20042;-78
2023/01/15 01:00:59;;;;;;;1.17;0.32;;;6.20;99.90;;;;;;12428269;28;20038;-78
2023/01/15 01:07:01;;;;;;;0.95;0.38;;;6.00;99.90;;;;;;12429058;28;20442;-79
2023/01/15 01:13:03;;;;;;;3.03;0.43;;;5.80;99.90;;;;;;12429206;28;20087;-79
2023/01/15 01:19:11;;;;;;;3.15;0.40;;;5.60;99.90;;;;;;12435485;28;20111;-78
2023/01/15 01:25:13;;;;;;;0.68;0.30;;;5.50;99.90;;;;;;12423752;28;20038;-79
2023/01/15 01:31:17;;;;;;;1.23;0.20;;;5.40;99.90;;;;;;12441387;28;20387;-79
2023/01/15 01:37:18;;;;;;;1.98;0.30;;;5.40;99.90;;;;;;12433758;28;20520;-78
2023/01/15 01:43:24;;;;;;;0.57;0.10;;;5.20;99.90;;;;;;12418079;28;20042;-79
2023/01/15 01:49:26;;;;;;;1.88;0.22;;;5.10;99.90;;;;;;12430926;28;20477;-79
2023/01/15 01:55:32;;;;;;;1.60;0.17;;;5.10;99.90;;;;;;12435565;28;20038;-78
2023/01/15 02:01:34;;;;;;;4.60;0.40;;;5.10;99.90;;;;;;12430788;28;20081;-79
2023/01/15 02:07:36;;;;;;;2.58;0.30;;;5.10;99.90;;;;;;12432460;28;20046;-79
2023/01/15 02:13:44;;;;;;;2.50;0.40;;;5.20;99.90;;;;;;12436324;28;20057;-79
2023/01/15 02:19:57;;;;;;;2.08;0.52;;;5.20;99.90;;;;;;12420945;28;20053;-79
2023/01/15 02:26:28;;;;;;;3.92;0.30;;;5.30;99.90;;;;;;12419396;28;20494;-79
2023/01/15 02:33:12;;;;;;;3.08;0.50;;;5.30;99.90;;;;;;12382070;28;20070;-79
2023/01/15 02:39:16;;;;;;;4.32;0.60;;;5.30;99.90;;;;;;12391629;28;20054;-79
2023/01/15 02:45:27;;;;;;;0.93;0.40;;;5.30;99.90;;;;;;12380540;28;20042;-79
2023/01/15 02:51:51;;;;;;;2.80;0.70;;;5.30;99.90;;;;;;12371444;28;20058;-78
2023/01/15 02:57:57;;;;;;;6.45;1.50;;;5.30;99.90;;;;;;12380442;28;20066;-79
2023/01/15 03:04:43;;;;;;;3.88;0.52;;;5.40;99.90;;;;;;12377903;28;20046;-78
2023/01/15 03:11:02;;;;;;;2.50;0.70;;;5.40;99.90;;;;;;12376154;28;20059;-79
2023/01/15 03:17:18;;;;;;;3.08;0.73;;;5.40;99.90;;;;;;12385219;28;20141;-79
2023/01/15 03:23:23;;;;;;;2.88;0.60;;;5.40;99.90;;;;;;12384087;28;20038;-78
2023/01/15 03:29:29;;;;;;;6.07;0.68;;;5.50;99.90;;;;;;12387381;28;20152;-79
2023/01/15 03:35:49;;;;;;;2.58;0.80;;;5.50;99.90;;;;;;12384508;28;20080;-78
2023/01/15 03:42:06;;;;;;;3.75;0.95;;;5.50;99.90;;;;;;12375279;28;20053;-78
2023/01/15 03:48:19;;;;;;;3.78;0.93;;;5.50;99.90;;;;;;12387918;28;20054;-79
2023/01/15 03:54:32;;;;;;;2.22;0.88;;;5.50;99.90;;;;;;12376652;28;20532;-78
2023/01/15 04:00:57;;;;;;;4.75;0.95;;;5.50;99.90;;;;;;12386204;28;20054;-78
2023/01/15 04:07:00;;;;;;;4.47;0.88;;;5.50;99.90;;;;;;12377300;28;20092;-78
2023/01/15 04:13:02;;;;;;;2.20;1.08;;;5.40;99.90;;;;;;12367129;28;20069;-79
2023/01/15 04:19:03;;;;;;;2.67;0.68;;;5.50;99.90;;;;;;12379353;28;20072;-79
2023/01/15 04:25:06;;;;;;;5.97;1.00;;;5.50;99.90;;;;;;12378784;28;20038;-78
2023/01/15 04:31:08;;;;;;;3.38;0.80;;;5.50;99.90;;;;;;12383770;28;20080;-78
2023/01/15 04:37:13;;;;;;;2.65;0.77;;;5.50;99.90;;;;;;12364829;28;20050;-79
2023/01/15 04:49:35;;;;;;;7.68;1.48;;;5.50;99.90;;;;;;12372868;28;20157;-79
2023/01/15 04:55:37;;;;;;;5.20;0.98;;;5.50;99.90;;;;;;12366709;28;20769;-78
2023/01/15 05:01:39;;;;;;;5.03;0.98;;;5.50;99.90;;;;;;12365093;28;20047;-79
2023/01/15 05:07:55;;;;;;;6.63;1.40;;;5.50;99.90;;;;;;12369829;28;20479;-78
2023/01/15 05:13:56;;;;;;;8.18;1.15;;;5.60;99.90;;;;;;12378625;28;20100;-78
2023/01/15 05:19:58;;;;;;;8.98;1.38;;;5.60;99.90;;;;;;12370475;28;20089;-79
2023/01/15 05:26:02;;;;;;;5.28;0.90;;;5.60;99.90;;;;;;12388333;28;20076;-79
2023/01/15 05:32:04;;;;;;;5.53;1.17;;;5.50;99.90;;;;;;12369090;28;20054;-79
2023/01/15 05:38:10;;;;;;;9.45;1.33;;;5.60;99.90;;;;;;12381316;28;20066;-78
2023/01/15 05:44:12;;;;;;;5.63;1.13;;;5.60;99.90;;;;;;12362637;28;20046;-79
2023/01/15 05:50:15;;;;;;;8.50;0.90;;;5.60;99.90;;;;;;12385140;28;20453;-79
2023/01/15 05:56:16;;;;;;;5.28;1.20;;;5.60;99.90;;;;;;12371599;28;20053;-78
2023/01/15 06:02:18;;;;;;;8.32;0.93;;;5.60;99.90;;;;;;12380404;28;20133;-78
2023/01/15 06:08:21;;;;;;;8.80;1.30;;;5.70;99.90;;;;;;12378586;28;20057;-78
2023/01/15 06:14:24;;;;;;;10.95;1.60;;;5.60;99.90;;;;;;12386615;28;20043;-80
2023/01/15 06:20:26;;;;;;;6.53;0.98;;;5.60;99.90;;;;;;12391919;28;20054;-79
2023/01/15 06:26:28;;;;;;;11.55;1.25;;;5.60;99.90;;;;;;12393050;28;20043;-78
2023/01/15 06:32:30;;;;;;;3.08;0.80;;;5.70;99.90;;;;;;12382849;28;20050;-78
2023/01/15 06:38:32;;;;;;;7.68;1.70;;;5.70;99.90;;;;;;12391261;28;20808;-79
2023/01/15 06:50:55;;;;;;;8.52;1.08;;;5.70;99.90;;;;;;12376718;28;20057;-78
2023/01/15 06:56:56;;;;;;;6.97;1.30;;;5.70;99.90;;;;;;12377021;28;20475;-78
2023/01/15 07:03:00;;;;;;;10.80;1.70;;;5.60;99.90;;;;;;12379446;28;20050;-78
2023/01/15 07:09:02;;;;;;;5.68;1.55;;;5.60;99.90;;;;;;12392364;28;20490;-79
2023/01/15 07:15:04;;;;;;;6.97;1.40;;;5.60;99.90;;;;;;12382825;28;20185;-79
2023/01/15 07:21:06;;;;;;;6.30;1.15;;;5.60;99.90;;;;;;12375723;28;20042;-77
2023/01/15 07:27:08;;;;;;;7.70;1.10;;;5.60;99.90;;;;;;12370998;28;20137;-79
2023/01/15 07:33:11;;;;;;;4.45;1.15;;;5.60;99.90;;;;;;12370238;28;20039;-78
2023/01/15 07:39:13;;;;;;;7.32;1.10;;;5.50;99.90;;;;;;12369398;28;20046;-79
2023/01/15 07:51:36;;;;;;;10.65;2.10;;;5.60;99.90;;;;;;12361502;28;20084;-78
2023/01/15 07:57:42;;;;;;;6.75;1.42;;;5.60;99.90;;;;;;12356608;28;20061;-79
2023/01/15 08:03:44;;;;;;;6.75;1.55;;;5.70;99.90;;;;;;12359345;28;20081;-79
2023/01/15 08:09:46;;;;;;;9.82;1.50;;;5.70;99.90;;;;;;12384627;28;20182;-78
2023/01/15 08:15:48;;;;;;;12.35;1.80;;;5.70;99.90;;;;;;12422412;28;20047;-78
2023/01/15 08:21:50;;;;;;;7.35;1.50;;;5.70;99.90;;;;;;12440676;28;20061;-78
2023/01/15 08:27:53;;;;;;;3.83;1.65;;;5.70;99.90;;;;;;12435921;28;20050;-78
2023/01/15 08:33:55;;;;;;;8.35;1.40;;;5.80;99.90;;;;;;12431067;28;20050;-78
2023/01/15 08:39:56;;;;;;;7.38;1.50;;;5.90;99.90;;;;;;12436153;28;20135;-79
2023/01/15 08:46:00;;;;;;;7.03;1.52;;;6.00;99.90;;;;;;12435815;28;20046;-78
2023/01/15 08:52:02;;;;;;;4.80;1.20;;;6.00;99.90;;;;;;12413897;28;20049;-78
2023/01/15 08:58:04;;;;;;;6.53;1.25;;;6.00;99.90;;;;;;12417604;28;20110;-78
2023/01/15 09:04:06;;;;;;;7.10;1.13;;;6.00;99.90;;;;;;12431403;28;20084;-79
2023/01/15 09:10:08;;;;;;;9.95;1.83;;;6.10;99.90;;;;;;12502724;28;20050;-78
2023/01/15 09:16:10;;;;;;;4.53;1.00;;;6.10;99.90;;;;;;12491171;28;20300;-78
2023/01/15 09:22:12;;;;;;;7.65;1.10;;;6.10;99.90;;;;;;12490344;28;20026;-79
2023/01/15 09:28:14;;;;;;;5.40;1.02;;;6.10;99.90;;;;;;12453710;28;20107;-79
2023/01/15 09:34:16;;;;;;;7.90;1.40;;;6.10;99.90;;;;;;12455110;28;20564;-79
2023/01/15 09:40:31;;;;;;;7.32;1.15;;;6.10;99.90;;;;;;12439045;28;20448;-78
2023/01/15 09:46:36;;;;;;;4.90;1.30;;;6.00;99.90;;;;;;12421669;28;20491;-79
2023/01/15 09:52:40;;;;;;;4.53;1.00;;;5.80;99.90;;;;;;12418079;28;20139;-78
2023/01/15 09:58:42;;;;;;;7.32;1.80;;;5.90;99.90;;;;;;12424134;28;20141;-79
2023/01/15 10:04:50;;;;;;;8.68;2.10;;;5.70;99.90;;;;;;12437086;28;20054;-79
2023/01/15 10:11:15;;;;;;;4.30;0.98;;;5.60;99.90;;;;;;12426005;28;20049;-78
2023/01/15 10:17:26;;;;;;;5.75;1.00;;;5.60;99.90;;;;;;12422059;28;20132;-80
2023/01/15 10:23:39;;;;;;;5.28;1.10;;;5.70;99.90;;;;;;12435149;28;20520;-79
2023/01/15 10:29:54;;;;;;;11.13;1.23;;;5.90;99.90;;;;;;12432340;28;20043;-79
2023/01/15 10:35:59;;;;;;;5.25;0.90;;;6.20;99.90;;;;;;12428434;28;20052;-80
2023/01/15 10:42:19;;;;;;;;;;;6.20;99.90;;;;;;12418516;28;20403;-81
2023/01/15 10:48:39;;;;;;;8.73;1.67;;;6.40;99.90;;;;;;12421678;28;20361;-80
2023/01/15 10:54:46;;;;;;;4.68;0.90;;;6.30;99.90;;;;;;12420483;28;20042;-80
2023/01/15 11:00:55;;;;;;;6.32;1.05;;;6.40;99.90;;;;;;12411722;28;20371;-80
2023/01/15 11:06:59;;;;;;;4.47;0.90;;;6.60;99.90;;;;;;12443281;28;20073;-80
2023/01/15 11:19:56;;;;;;;7.53;0.82;;;6.40;99.90;;;;;;12435440;28;20056;-79
2023/01/15 11:25:59;;;;;;;4.85;1.00;;;6.40;99.90;;;;;;12428765;28;20800;-78
2023/01/15 11:32:02;;;;;;;4.65;0.80;;;6.40;99.90;;;;;;12438489;28;20405;-79
2023/01/15 11:38:14;;;;;;;5.05;1.02;;;6.40;99.90;;;;;;12429847;28;20136;-79
2023/01/15 11:51:12;;;;;;;7.50;0.82;;;6.50;99.90;;;;;;12411946;28;20076;-79
2023/01/15 11:57:31;;;;;;;5.28;1.10;;;6.40;99.90;;;;;;12420316;28;20171;-80
2023/01/15 12:03:35;;;;;;;3.45;0.90;;;6.40;99.90;;;;;;12421786;28;20512;-79
2023/01/15 12:09:40;;;;;;;5.17;1.20;;;6.40;99.90;;;;;;12425359;28;20060;-80
2023/01/15 12:15:50;;;;;;;3.17;0.90;;;6.40;99.90;;;;;;12431953;28;20042;-78
2023/01/15 12:22:07;;;;;;;7.38;0.82;;;6.40;99.90;;;;;;12438468;28;20046;-79
2023/01/15 12:28:15;;;;;;;8.52;0.95;;;6.40;99.90;;;;;;12428298;28;20046;-78
2023/01/15 12:34:46;;;;;;;5.47;0.95;;;6.40;99.90;;;;;;12430206;28;20048;-78
2023/01/15 12:40:53;;;;;;;3.90;0.90;;;6.60;99.90;;;;;;12420645;28;20054;-78
2023/01/15 12:46:55;;;;;;;5.25;0.85;;;6.60;99.90;;;;;;12429655;28;20058;-80
2023/01/15 12:53:24;;;;;;;6.90;1.13;;;6.60;99.90;;;;;;12424806;28;20049;-79
2023/01/15 12:59:36;;;;;;;5.68;0.70;;;6.60;99.90;;;;;;12417186;28;20054;-79
2023/01/15 13:05:46;;;;;;;4.88;1.02;;;6.60;99.90;;;;;;12429965;28;20049;-79
2023/01/15 13:11:48;;;;;;;9.80;1.80;;;6.60;99.90;;;;;;12413339;28;20131;-79
2023/01/15 13:18:16;;;;;;;4.07;1.00;;;6.60;99.90;;;;;;12433493;28;20066;-79
2023/01/15 13:24:57;;;;;;;11.07;1.33;;;6.60;99.90;;;;;;12434862;28;20050;-79
2023/01/15 13:31:07;;;;;;;4.78;0.90;;;6.60;99.90;;;;;;12429172;28;20057;-80
2023/01/15 13:37:15;;;;;;;9.65;1.15;;;6.60;99.90;;;;;;12427566;28;20141;-79
2023/01/15 13:43:32;;;;;;;6.80;0.85;;;6.70;99.90;;;;;;12424923;28;20580;-78
2023/01/15 13:49:39;;;;;;;6.13;0.93;;;6.70;99.90;;;;;;12418321;28;20074;-78
2023/01/15 13:55:50;;;;;;;11.65;1.23;;;6.70;99.90;;;;;;12432654;28;20049;-79
2023/01/15 14:01:52;;;;;;;7.43;1.05;;;6.70;99.90;;;;;;12441988;28;20037;-79
2023/01/15 14:07:54;;;;;;;6.47;1.00;;;6.70;99.90;;;;;;12420105;28;20054;-79
2023/01/15 14:14:08;;;;;;;3.03;0.77;;;6.70;99.90;;;;;;12415616;28;20058;-79
2023/01/15 14:20:22;;;;;;;6.95;0.77;;;6.70;99.90;;;;;;12445256;28;20136;-78
2023/01/15 14:27:09;;;;;;;4.07;0.80;;;6.70;99.90;;;;;;12439871;28;20048;-79
2023/01/15 14:33:33;;;;;;;7.57;0.90;;;6.60;99.90;;;;;;12430240;28;20145;-79
2023/01/15 14:39:48;;;;;;;6.60;0.82;;;6.60;99.90;;;;;;12440680;28;20086;-77
2023/01/15 14:45:51;;;;;;;5.10;0.90;;;6.60;99.90;;;;;;12434272;28;20046;-79
2023/01/15 14:51:53;;;;;;;7.07;0.77;;;6.50;99.90;;;;;;12423424;28;20852;-78
2023/01/15 14:58:07;;;;;;;4.82;1.00;;;6.40;99.90;;;;;;12442659;28;20410;-80
2023/01/15 15:04:18;;;;;;;6.67;1.30;;;6.40;99.90;;;;;;12411529;28;20842;-79
2023/01/15 15:10:24;;;;;;;1.92;0.70;;;6.40;99.90;;;;;;12422030;28;20046;-80
2023/01/15 15:16:28;;;;;;;2.72;0.77;;;6.40;99.90;;;;;;12440263;28;20157;-79
2023/01/15 15:22:31;;;;;;;6.20;1.00;;;6.50;99.90;;;;;;12430921;28;20046;-80
2023/01/15 15:28:33;;;;;;;2.95;0.60;;;6.50;99.90;;;;;;12421999;28;20085;-80
2023/01/15 15:34:39;;;;;;;2.67;0.77;;;6.40;99.90;;;;;;12439930;28;20053;-80
2023/01/15 15:40:46;;;;;;;3.47;0.70;;;6.40;99.90;;;;;;12420298;28;20103;-80
2023/01/15 15:53:16;;;;;;;3.47;0.60;;;6.40;99.90;;;;;;12436725;28;20095;-80
2023/01/15 15:59:34;;;;;;;4.47;0.75;;;6.40;99.90;;;;;;12421989;28;20045;-80
2023/01/15 16:05:36;;;;;;;4.15;1.08;;;6.30;99.90;;;;;;12436028;28;20137;-79
2023/01/15 16:11:39;;;;;;;5.28;1.20;;;6.30;99.90;;;;;;12413592;28;20054;-79
2023/01/15 16:17:41;;;;;;;4.32;0.90;;;6.40;99.90;;;;;;12420672;28;20049;-79
2023/01/15 16:23:58;;;;;;;3.38;0.70;;;6.40;99.90;;;;;;12434715;28;20101;-80
2023/01/15 16:30:01;;;;;;;3.50;0.70;;;6.40;99.90;;;;;;12431682;28;20064;-80
2023/01/15 16:36:06;;;;;;;4.88;1.00;;;6.40;99.90;;;;;;12421303;28;20128;-79
2023/01/15 16:42:31;;;;;;;4.45;0.90;;;6.40;99.90;;;;;;12440411;28;20431;-80
2023/01/15 16:48:45;;;;;;;9.63;1.05;;;6.40;99.90;;;;;;12411741;28;20038;-79
2023/01/15 16:54:46;;;;;;;3.65;0.80;;;6.40;99.90;;;;;;12425981;28;20049;-79
2023/01/15 17:00:52;;;;;;;4.22;0.82;;;6.40;99.90;;;;;;12426537;28;20124;-80
2023/01/15 17:06:58;;;;;;;2.78;0.90;;;6.40;99.90;;;;;;12434405;28;20068;-78
2023/01/15 17:13:00;;;;;;;2.92;0.70;;;6.40;99.90;;;;;;12433834;28;20468;-79
2023/01/15 17:19:06;;;;;;;2.63;0.68;;;6.40;99.90;;;;;;12424283;28;20093;-79
2023/01/15 17:25:29;;;;;;;3.95;0.80;;;6.40;99.90;;;;;;12379781;28;20062;-79
2023/01/15 17:31:32;;;;;;;3.70;0.80;;;6.50;99.90;;;;;;12402519;28;20414;-79
2023/01/15 17:37:34;;;;;;;4.88;0.70;;;6.50;99.90;;;;;;12379202;28;20054;-80
2023/01/15 17:43:36;;;;;;;2.28;0.90;;;6.50;99.90;;;;;;12347303;28;20038;-79
2023/01/15 17:49:38;;;;;;;5.57;0.65;;;6.50;99.90;;;;;;12384739;28;20054;-79
2023/01/15 18:08:22;;;;;;;7.38;1.33;;;6.40;99.90;;;;;;12370152;28;20506;-79
2023/01/15 18:14:24;;;;;;;3.70;0.80;;;6.30;99.90;;;;;;12389883;28;20363;-80
2023/01/15 18:20:27;;;;;;;8.20;0.70;;;6.30;99.90;;;;;;12394341;28;20054;-77
2023/01/15 18:26:29;;;;;;;5.38;0.82;;;6.30;99.90;;;;;;12369187;28;20050;-80
2023/01/15 18:32:32;;;;;;;2.72;0.70;;;6.30;99.90;;;;;;12377348;28;20054;-80
2023/01/15 18:38:39;;;;;;;2.15;0.70;;;6.30;99.90;;;;;;12386371;28;20431;-80
2023/01/15 18:51:08;;;;;;;4.53;0.80;;;6.20;99.90;;;;;;12433783;28;20058;-80
2023/01/15 18:57:11;;;;;;;3.15;0.90;;;6.20;99.90;;;;;;12433731;28;20073;-79
2023/01/15 19:03:13;;;;;;;2.28;0.90;;;6.20;99.90;;;;;;12431938;28;20038;-79
2023/01/15 19:09:15;;;;;;;3.10;0.80;;;6.20;99.90;;;;;;12430778;28;20144;-79
2023/01/15 19:21:41;;;;;;;3.50;0.88;;;6.20;99.90;;;;;;12426343;28;20053;-79
2023/01/15 19:27:43;;;;;;;3.63;0.98;;;6.30;99.90;;;;;;12434020;28;20050;-79
2023/01/15 19:33:44;;;;;;;4.10;0.93;;;6.30;99.90;;;;;;12435453;28;20141;-79
2023/01/15 19:39:46;;;;;;;5.28;0.80;;;6.20;99.90;;;;;;12451231;28;20085;-80
2023/01/15 19:58:34;;;;;;;4.13;0.90;;;6.20;99.90;;;;;;12431307;28;20052;-79
2023/01/15 20:04:35;;;;;;;4.28;0.95;;;6.10;99.90;;;;;;12420305;28;20053;-80
2023/01/15 20:10:43;;;;;;;1.63;0.70;;;6.10;99.90;;;;;;12413703;28;20196;-78
2023/01/15 20:16:45;;;;;;;4.70;0.70;;;6.10;99.90;;;;;;12436762;28;20613;-79
2023/01/15 20:22:47;;;;;;;3.15;0.80;;;6.10;99.90;;;;;;12446693;28;20477;-79
2023/01/15 20:28:49;;;;;;;4.80;0.75;;;6.00;99.90;;;;;;12442583;28;20562;-79
2023/01/15 20:34:51;;;;;;;2.53;0.90;;;6.00;99.90;;;;;;12450302;28;20408;-78
2023/01/15 20:40:53;;;;;;;2.47;0.70;;;6.00;99.90;;;;;;12441918;28;20045;-78
2023/01/15 20:46:55;;;;;;;2.75;0.70;;;5.90;99.90;;;;;;12414356;28;20586;-78
2023/01/15 20:52:58;;;;;;;3.03;0.80;;;5.90;99.90;;;;;;12432419;28;20041;-79
2023/01/15 20:59:00;;;;;;;4.25;1.00;;;5.90;99.90;;;;;;12437528;28;20835;-79
2023/01/15 21:05:02;;;;;;;2.85;0.90;;;5.90;99.90;;;;;;12430379;28;20042;-80
2023/01/15 21:11:04;;;;;;;4.80;0.90;;;5.80;99.90;;;;;;12434101;28;20050;-80
2023/01/15 21:17:06;;;;;;;5.22;2.13;;;5.70;99.90;;;;;;12447181;28;20092;-79
2023/01/15 21:23:07;;;;;;;2.03;0.80;;;5.70;99.90;;;;;;12446927;28;20191;-79
2023/01/15 21:29:09;;;;;;;2.50;0.90;;;5.60;99.90;;;;;;12444481;28;20052;-79
2023/01/15 21:35:11;;;;;;;3.75;0.95;;;5.50;99.90;;;;;;12433981;28;20060;-79
2023/01/15 21:41:14;;;;;;;3.95;1.05;;;5.60;99.90;;;;;;12435470;28;20079;-79
2023/01/15 21:47:18;;;;;;;3.25;0.82;;;5.70;99.90;;;;;;12442350;28;20183;-80
2023/01/15 21:53:22;;;;;;;2.65;0.77;;;5.70;99.90;;;;;;12449917;28;20457;-79
2023/01/15 21:59:24;;;;;;;5.05;0.77;;;5.60;99.90;;;;;;12436571;28;20042;-78
2023/01/15 22:05:26;;;;;;;4.63;1.08;;;5.70;99.90;;;;;;12437870;28;20177;-79
2023/01/15 22:11:42;;;;;;;6.30;0.88;;;5.70;99.90;;;;;;12439131;28;20058;-78
2023/01/15 22:17:48;;;;;;;3.63;1.00;;;5.60;99.90;;;;;;12459024;28;20045;-79
2023/01/15 22:23:49;;;;;;;5.80;1.63;;;5.60;99.90;;;;;;12472102;28;20050;-80
2023/01/15 22:29:51;;;;;;;4.82;0.95;;;5.50;99.90;;;;;;12495977;28;20065;-79
2023/01/15 22:35:57;;;;;;;4.35;0.80;;;5.30;99.90;;;;;;12508502;28;20061;-79
2023/01/15 22:48:20;;;;;;;6.90;1.50;;;5.00;99.90;;;;;;12431117;28;20383;-78
2023/01/15 22:54:22;;;;;;;4.30;1.17;;;5.00;99.90;;;;;;12423693;28;20050;-79
2023/01/15 23:00:24;;;;;;;3.90;1.00;;;4.90;99.90;;;;;;12413786;28;20487;-78
2023/01/15 23:06:27;;;;;;;3.65;0.95;;;5.00;99.90;;;;;;12434083;28;20082;-79
2023/01/15 23:12:30;;;;;;;3.42;1.00;;;5.00;99.90;;;;;;12418782;28;20054;-79
2023/01/15 23:18:33;;;;;;;2.83;0.80;;;5.00;99.90;;;;;;12447305;28;20149;-78
2023/01/15 23:24:35;;;;;;;5.65;0.75;;;5.00;99.90;;;;;;12447214;28;20045;-78
2023/01/15 23:30:37;;;;;;;3.08;0.70;;;5.00;99.90;;;;;;12444010;28;20045;-78
2023/01/15 23:36:39;;;;;;;2.88;0.90;;;5.10;99.90;;;;;;12452586;28;20107;-78
2023/01/15 23:49:03;;;;;;;7.38;0.98;;;5.20;99.90;;;;;;12424074;28;20165;-79
2023/01/15 23:55:06;;;;;;;5.22;0.82;;;5.00;99.90;;;;;;12431844;28;20037;-80
